Time;durP1;ratioP1;P1;durP2;ratioP2;P2;SDS_P1;SDS_P2;PMS_P1;PMS_P2;Temp;Humidity;BMP_temperature;BMP_pressure;BME280_temperature;BME280_humidity;BME280_pressure;Samples;Min_cycle;Max_cycle;Signal;HPM_P1;HPM_P2
2022/08/11 00:01:25;;;;;;;3.17;2.20;;;21.00;43.80;;;;;;5034349;28;20034;-70
2022/08/11 00:03:57;;;;;;;2.28;1.98;;;20.90;43.70;;;;;;5052228;28;20470;-71
2022/08/11 00:06:30;;;;;;;6.53;2.20;;;20.90;43.80;;;;;;5054169;28;20053;-70
2022/08/11 00:08:57;;;;;;;5.03;2.10;;;20.90;43.90;;;;;;5054120;28;20010;-70
2022/08/11 00:11:34;;;;;;;4.45;2.10;;;20.90;44.10;;;;;;5049222;28;20030;-68
2022/08/11 00:14:01;;;;;;;2.45;2.13;;;20.80;44.00;;;;;;5032864;28;20021;-71
2022/08/11 00:16:28;;;;;;;6.65;2.58;;;20.80;44.00;;;;;;5016346;28;20026;-70
2022/08/11 00:18:56;;;;;;;3.33;2.28;;;20.80;44.40;;;;;;5034060;28;20036;-69
2022/08/11 00:21:23;;;;;;;3.22;2.40;;;20.80;44.50;;;;;;5033819;28;20049;-68
2022/08/11 00:23:57;;;;;;;2.67;1.95;;;20.80;44.30;;;;;;5033889;28;20026;-68
2022/08/11 00:26:24;;;;;;;5.73;2.40;;;20.70;44.50;;;;;;5032647;28;20056;-70
2022/08/11 00:28:51;;;;;;;3.92;2.40;;;20.70;44.40;;;;;;5032974;28;20014;-69
2022/08/11 00:31:25;;;;;;;2.58;2.30;;;20.70;44.40;;;;;;5033817;28;20028;-68
2022/08/11 00:33:51;;;;;;;7.90;2.42;;;20.70;44.70;;;;;;5032503;28;20487;-70
2022/08/11 00:36:19;;;;;;;3.03;1.92;;;20.60;44.70;;;;;;5033753;28;20026;-71
2022/08/11 00:38:50;;;;;;;3.95;2.22;;;20.60;44.70;;;;;;5033680;28;20017;-68
2022/08/11 00:42:09;;;;;;;2.38;2.00;;;20.60;44.70;;;;;;5033591;28;20455;-71
2022/08/11 00:44:52;;;;;;;3.17;2.00;;;20.60;44.40;;;;;;4969795;28;20556;-71
2022/08/11 00:47:30;;;;;;;3.88;2.00;;;20.60;44.60;;;;;;5012618;28;20032;-69
2022/08/11 00:50:18;;;;;;;2.83;1.90;;;20.50;44.80;;;;;;5013778;28;20033;-71
2022/08/11 00:52:53;;;;;;;3.85;2.38;;;20.50;44.90;;;;;;5013789;28;20476;-70
2022/08/11 00:55:33;;;;;;;4.57;2.05;;;20.50;44.80;;;;;;5013679;28;20467;-69
2022/08/11 00:58:23;;;;;;;3.83;2.20;;;20.40;44.90;;;;;;5013552;28;20021;-70
2022/08/11 01:01:01;;;;;;;2.47;2.10;;;20.40;45.00;;;;;;5013540;28;20022;-70
2022/08/11 01:04:03;;;;;;;2.65;2.10;;;20.40;45.10;;;;;;5036589;28;20105;-71
2022/08/11 01:07:00;;;;;;;5.47;1.92;;;20.40;45.20;;;;;;5031725;28;20468;-68
2022/08/11 01:09:53;;;;;;;4.70;2.42;;;20.40;45.20;;;;;;5015267;28;20025;-69
2022/08/11 01:12:39;;;;;;;5.53;2.35;;;20.40;45.00;;;;;;4971783;28;20039;-70
2022/08/11 01:15:35;;;;;;;3.63;2.00;;;20.40;45.50;;;;;;4955789;28;20030;-69
2022/08/11 01:18:34;;;;;;;4.53;2.25;;;20.30;45.40;;;;;;4971883;28;20133;-71
2022/08/11 01:21:19;;;;;;;3.60;2.15;;;20.30;45.40;;;;;;4971139;28;20051;-70
2022/08/11 01:24:03;;;;;;;5.65;2.13;;;20.30;45.60;;;;;;4971747;28;20416;-70
2022/08/11 01:26:49;;;;;;;3.28;2.10;;;20.30;45.50;;;;;;4955712;28;20388;-71
2022/08/11 01:29:21;;;;;;;2.28;2.08;;;20.20;45.70;;;;;;4971778;28;20031;-68
2022/08/11 01:32:08;;;;;;;3.30;2.00;;;20.20;45.70;;;;;;4955214;28;20098;-71
2022/08/11 01:35:00;;;;;;;2.83;1.90;;;20.20;45.80;;;;;;4971679;28;20125;-68
2022/08/11 01:37:44;;;;;;;3.85;2.15;;;20.20;45.80;;;;;;4949766;28;20041;-71
2022/08/11 01:40:33;;;;;;;3.45;2.15;;;20.20;45.80;;;;;;4972606;28;20396;-70
2022/08/11 01:46:23;;;;;;;2.55;2.17;;;20.10;45.90;;;;;;4971614;28;20173;-70
2022/08/11 01:49:27;;;;;;;5.22;2.33;;;20.10;46.10;;;;;;4994322;28;20060;-71
2022/08/11 01:52:44;;;;;;;5.38;2.30;;;20.10;46.00;;;;;;5032419;28;20052;-71
2022/08/11 01:55:47;;;;;;;4.25;2.00;;;20.10;46.00;;;;;;5009053;28;20522;-70
2022/08/11 01:58:16;;;;;;;4.13;2.15;;;20.10;45.90;;;;;;4990563;28;20409;-68
2022/08/11 02:01:07;;;;;;;3.53;2.08;;;20.10;45.90;;;;;;4990821;28;20088;-70
2022/08/11 02:03:50;;;;;;;2.70;2.05;;;20.10;46.20;;;;;;4990390;28;20082;-70
2022/08/11 02:06:55;;;;;;;6.68;2.65;;;20.00;46.60;;;;;;4990796;28;20485;-69
2022/08/11 02:09:44;;;;;;;3.53;2.08;;;20.00;47.00;;;;;;4990676;28;20054;-71
2022/08/11 02:12:34;;;;;;;4.90;2.63;;;20.00;46.80;;;;;;4990216;28;20053;-71
2022/08/11 02:15:21;;;;;;;5.97;3.08;;;20.00;46.90;;;;;;4974368;28;20040;-70
2022/08/11 02:17:56;;;;;;;2.85;2.55;;;20.00;46.80;;;;;;4990653;28;20499;-68
2022/08/11 02:23:39;;;;;;;10.00;2.97;;;20.00;46.80;;;;;;4990617;28;20054;-71
2022/08/11 02:26:07;;;;;;;3.92;2.80;;;20.10;46.90;;;;;;4990605;28;20027;-68
2022/08/11 02:29:01;;;;;;;10.52;2.42;;;20.10;47.20;;;;;;4989974;28;20093;-70
2022/08/11 02:35:03;;;;;;;3.58;2.50;;;20.10;46.40;;;;;;5002296;28;20111;-69
2022/08/11 02:37:32;;;;;;;6.43;2.58;;;20.20;46.70;;;;;;5030754;28;20364;-70
2022/08/11 02:39:58;;;;;;;4.18;2.60;;;20.20;46.70;;;;;;5032035;28;20093;-70
2022/08/11 02:42:45;;;;;;;3.15;2.60;;;20.20;46.40;;;;;;5014301;28;20037;-70
2022/08/11 02:45:11;;;;;;;4.90;2.58;;;20.30;46.30;;;;;;5032057;28;20018;-68
2022/08/11 02:51:13;;;;;;;4.25;2.05;;;20.30;46.30;;;;;;5032005;28;20040;-69
2022/08/11 02:54:05;;;;;;;3.47;2.20;;;20.40;46.20;;;;;;5032020;28;20034;-70
2022/08/11 02:56:53;;;;;;;2.92;2.42;;;20.40;45.90;;;;;;5035465;28;20017;-69
2022/08/11 02:59:52;;;;;;;3.15;2.20;;;20.40;46.00;;;;;;5035508;28;20192;-71
2022/08/11 03:02:36;;;;;;;3.10;2.55;;;20.40;46.00;;;;;;5019550;28;20043;-69
2022/08/11 03:05:16;;;;;;;3.40;2.33;;;20.40;46.20;;;;;;5052561;28;20024;-70
2022/08/11 03:08:17;;;;;;;3.70;2.53;;;20.30;46.00;;;;;;5016490;28;20021;-70
2022/08/11 03:17:03;;;;;;;4.68;3.13;;;20.40;46.20;;;;;;5015454;28;20036;-69
2022/08/11 03:19:44;;;;;;;4.18;2.50;;;20.40;46.10;;;;;;5015117;28;20032;-69
2022/08/11 03:22:21;;;;;;;6.28;3.13;;;20.40;46.10;;;;;;5026547;28;20040;-71
2022/08/11 03:25:00;;;;;;;3.92;2.40;;;20.40;45.80;;;;;;5035105;28;20021;-68
2022/08/11 03:27:51;;;;;;;3.95;2.40;;;20.40;45.70;;;;;;5035019;28;20055;-70
2022/08/11 03:30:24;;;;;;;5.85;2.83;;;20.50;45.60;;;;;;5034484;28;20040;-71
2022/08/11 03:36:18;;;;;;;3.60;2.58;;;20.50;45.30;;;;;;5050209;28;20125;-69
2022/08/11 03:38:47;;;;;;;3.20;2.90;;;20.60;45.00;;;;;;5034656;28;20025;-69
2022/08/11 03:41:51;;;;;;;3.70;2.47;;;20.60;44.90;;;;;;5016351;28;20038;-69
2022/08/11 03:44:26;;;;;;;3.10;2.78;;;20.70;44.80;;;;;;5022424;28;20364;-71
2022/08/11 03:47:05;;;;;;;3.17;2.30;;;20.80;44.70;;;;;;5034531;28;20151;-68
2022/08/11 03:49:46;;;;;;;4.00;2.58;;;20.90;44.60;;;;;;5034494;28;20383;-69
2022/08/11 03:52:49;;;;;;;5.55;2.25;;;20.90;44.30;;;;;;5033406;28;20025;-70
2022/08/11 03:55:29;;;;;;;4.25;2.85;;;20.90;44.20;;;;;;5034397;28;20067;-71
2022/08/11 03:58:40;;;;;;;2.42;2.20;;;20.90;44.10;;;;;;5033833;28;20064;-71
2022/08/11 04:01:17;;;;;;;4.18;1.83;;;21.00;44.70;;;;;;5016374;28;20025;-71
2022/08/11 04:04:19;;;;;;;5.15;2.53;;;21.00;44.00;;;;;;5050947;28;20413;-71
2022/08/11 04:06:59;;;;;;;17.98;2.78;;;21.00;44.00;;;;;;5054011;28;20475;-68
2022/08/11 04:09:55;;;;;;;4.72;2.45;;;21.00;43.90;;;;;;5054006;28;20028;-69
2022/08/11 04:12:54;;;;;;;3.70;2.78;;;21.00;43.90;;;;;;5053954;28;20017;-68
2022/08/11 04:18:59;;;;;;;4.22;2.40;;;21.10;43.90;;;;;;5033901;28;20541;-69
2022/08/11 04:21:34;;;;;;;3.08;2.40;;;21.00;43.80;;;;;;5032378;28;20060;-70
2022/08/11 04:24:24;;;;;;;3.35;2.00;;;21.10;43.80;;;;;;5033670;28;20033;-70
2022/08/11 04:27:08;;;;;;;5.22;2.58;;;21.10;43.80;;;;;;5033695;28;20026;-72
2022/08/11 04:30:03;;;;;;;9.32;2.10;;;21.10;43.70;;;;;;5033584;28;20079;-71
2022/08/11 04:32:57;;;;;;;5.20;2.35;;;21.10;43.70;;;;;;5041901;28;20033;-71
2022/08/11 04:35:29;;;;;;;2.63;1.90;;;21.20;43.90;;;;;;5042741;28;20531;-70
2022/08/11 04:37:55;;;;;;;4.10;2.28;;;21.20;44.10;;;;;;5033532;28;20478;-68
2022/08/11 04:40:57;;;;;;;3.47;2.15;;;21.30;44.20;;;;;;5033486;28;20058;-70
2022/08/11 04:43:55;;;;;;;3.45;2.25;;;21.30;44.20;;;;;;5033390;28;20557;-69
2022/08/11 04:46:59;;;;;;;4.20;2.60;;;21.30;44.10;;;;;;5033452;28;20479;-71
2022/08/11 05:01:42;;;;;;;3.67;2.58;;;21.60;43.50;;;;;;5033073;28;20031;-68
2022/08/11 05:07:48;;;;;;;7.65;2.33;;;21.70;43.10;;;;;;5034314;28;20113;-71
2022/08/11 05:10:19;;;;;;;4.03;2.45;;;21.80;42.80;;;;;;5032189;28;20378;-68
2022/08/11 05:12:55;;;;;;;4.60;2.22;;;21.80;42.80;;;;;;5032662;28;20024;-69
2022/08/11 05:36:16;;;;;;;4.38;1.98;;;22.40;42.60;;;;;;5026714;28;20449;-70
2022/08/11 05:58:39;;;;;;;3.72;2.45;;;22.80;41.70;;;;;;5012589;28;20076;-69
2022/08/11 06:01:06;;;;;;;4.47;2.33;;;22.90;41.60;;;;;;5012484;28;20033;-68
2022/08/11 06:04:13;;;;;;;5.97;2.40;;;22.90;41.80;;;;;;5042839;28;20025;-68
2022/08/11 06:06:25;;;;;;;4.20;2.85;;;23.00;41.80;;;;;;5032167;28;20471;-71
2022/08/11 06:08:56;;;;;;;5.68;2.72;;;23.00;42.30;;;;;;5032208;28;20025;-69
2022/08/11 06:11:23;;;;;;;9.40;3.00;;;23.10;41.30;;;;;;5032261;28;20025;-68
2022/08/11 06:13:51;;;;;;;8.77;5.72;;;23.10;41.40;;;;;;5031625;28;20023;-68
2022/08/11 06:16:24;;;;;;;7.30;3.50;;;23.20;41.80;;;;;;5032266;28;20029;-69
2022/08/11 06:18:51;;;;;;;7.65;2.90;;;23.20;41.40;;;;;;5014094;28;20067;-70
2022/08/11 06:21:17;;;;;;;6.78;3.33;;;23.30;41.40;;;;;;5031461;28;20503;-69
2022/08/11 06:23:44;;;;;;;7.15;3.38;;;23.30;41.30;;;;;;5031965;28;20026;-69
2022/08/11 06:26:12;;;;;;;7.25;3.50;;;23.40;41.40;;;;;;5030962;28;20022;-70
2022/08/11 06:28:43;;;;;;;7.78;3.05;;;23.40;41.30;;;;;;5050163;28;20021;-69
2022/08/11 06:31:18;;;;;;;7.30;2.95;;;23.50;41.00;;;;;;5051867;28;20180;-70
2022/08/11 06:33:49;;;;;;;11.48;3.67;;;23.50;40.90;;;;;;5044079;28;20478;-69
2022/08/11 06:36:45;;;;;;;7.95;3.22;;;23.60;41.10;;;;;;5035162;28;20086;-71
2022/08/11 06:39:43;;;;;;;5.90;3.05;;;23.60;41.20;;;;;;5035713;28;20088;-70
2022/08/11 06:42:31;;;;;;;5.68;3.03;;;23.70;41.20;;;;;;5018436;28;20112;-68
2022/08/11 06:45:10;;;;;;;8.90;3.90;;;23.70;40.90;;;;;;5018115;28;20026;-71
2022/08/11 06:47:48;;;;;;;12.85;4.03;;;23.80;40.60;;;;;;5035815;28;20382;-71
2022/08/11 06:53:08;;;;;;;5.88;3.10;;;23.90;40.80;;;;;;5036004;28;20438;-70
2022/08/11 07:01:13;;;;;;;7.40;2.40;;;24.10;40.40;;;;;;5035491;28;20087;-70
2022/08/11 07:04:01;;;;;;;7.55;2.97;;;24.10;40.10;;;;;;5017393;28;20060;-71
2022/08/11 07:06:37;;;;;;;7.32;2.40;;;24.20;40.00;;;;;;5035369;28;20128;-71
2022/08/11 07:29:13;;;;;;;15.98;3.53;;;24.70;40.00;;;;;;5034842;28;20032;-69
2022/08/11 07:31:48;;;;;;;13.05;4.03;;;24.80;40.00;;;;;;5034760;28;20033;-69
2022/08/11 07:34:34;;;;;;;7.45;4.03;;;24.80;39.80;;;;;;5034795;28;20467;-69
2022/08/11 07:37:07;;;;;;;7.50;3.80;;;24.90;39.30;;;;;;5034789;28;20034;-69
2022/08/11 07:39:36;;;;;;;5.85;3.20;;;25.00;39.40;;;;;;5033682;28;20029;-71
2022/08/11 07:42:10;;;;;;;7.55;3.58;;;25.00;39.40;;;;;;5034742;28;20391;-71
2022/08/11 07:53:05;;;;;;;7.60;3.60;;;25.30;39.00;;;;;;5048786;28;20075;-70
2022/08/11 07:55:33;;;;;;;9.88;3.80;;;25.40;38.80;;;;;;5036262;28;20059;-70
2022/08/11 08:20:06;;;;;;;5.50;3.17;;;26.00;37.90;;;;;;5033849;28;20494;-69
2022/08/11 08:22:34;;;;;;;5.55;3.33;;;26.00;37.90;;;;;;5033702;28;20033;-70
2022/08/11 08:25:00;;;;;;;10.65;3.00;;;26.10;37.60;;;;;;5033803;28;20064;-69
2022/08/11 08:27:26;;;;;;;5.00;3.08;;;26.20;37.40;;;;;;5033851;28;20028;-70
2022/08/11 08:32:42;;;;;;;10.60;2.63;;;26.30;37.00;;;;;;5033610;28;20060;-70
2022/08/11 08:35:11;;;;;;;4.45;2.42;;;26.30;36.00;;;;;;5033521;28;20025;-70
2022/08/11 08:37:37;;;;;;;6.30;2.40;;;26.40;36.50;;;;;;5033257;28;20471;-69
2022/08/11 08:40:06;;;;;;;6.22;2.83;;;26.40;36.10;;;;;;5033473;28;20033;-69
2022/08/11 08:42:37;;;;;;;9.63;3.78;;;26.50;36.30;;;;;;5033333;28;20056;-70
2022/08/11 08:45:06;;;;;;;7.65;3.03;;;26.50;36.50;;;;;;5033308;28;20045;-70
2022/08/11 08:47:42;;;;;;;7.35;3.53;;;26.60;36.60;;;;;;5033248;28;20470;-69
2022/08/11 08:50:12;;;;;;;5.85;3.28;;;26.60;36.50;;;;;;5045150;28;20509;-70
2022/08/11 08:52:42;;;;;;;8.38;2.63;;;26.70;36.40;;;;;;5053141;28;20024;-70
2022/08/11 08:55:15;;;;;;;4.20;2.30;;;26.70;36.00;;;;;;5041438;28;20025;-69
2022/08/11 08:57:43;;;;;;;6.18;2.72;;;26.80;36.10;;;;;;5033146;28;20100;-69
2022/08/11 09:00:12;;;;;;;4.45;2.83;;;26.80;36.30;;;;;;5033021;28;20479;-70
2022/08/11 09:02:39;;;;;;;5.60;2.00;;;26.90;36.00;;;;;;5032718;28;20071;-70
2022/08/11 09:05:07;;;;;;;4.65;2.53;;;26.90;35.80;;;;;;5033095;28;20541;-69
2022/08/11 09:07:34;;;;;;;18.08;3.53;;;26.90;34.50;;;;;;5015588;28;20363;-71
2022/08/11 09:10:00;;;;;;;3.10;2.20;;;27.00;34.60;;;;;;5033036;28;20032;-69
2022/08/11 09:12:28;;;;;;;3.65;2.20;;;27.00;35.30;;;;;;5032542;28;20021;-69
2022/08/11 09:15:02;;;;;;;4.03;2.13;;;27.10;35.00;;;;;;5032916;28;20075;-69
2022/08/11 09:17:43;;;;;;;3.67;2.38;;;27.20;35.40;;;;;;5015252;28;20379;-70
2022/08/11 09:20:24;;;;;;;4.68;2.20;;;27.20;34.80;;;;;;5044510;28;20041;-70
2022/08/11 09:28:28;;;;;;;3.78;2.10;;;27.30;34.10;;;;;;5041254;28;20051;-71
2022/08/11 09:30:55;;;;;;;4.03;2.20;;;27.30;33.70;;;;;;5032125;28;20022;-70
2022/08/11 09:33:23;;;;;;;6.88;2.50;;;27.40;33.60;;;;;;5032593;28;20021;-69
2022/08/11 09:35:52;;;;;;;3.97;2.20;;;27.40;34.50;;;;;;5032662;28;20071;-71
2022/08/11 09:41:08;;;;;;;3.50;1.77;;;27.50;31.00;;;;;;5032652;28;20039;-72
2022/08/11 09:46:29;;;;;;;5.07;2.20;;;27.50;32.50;;;;;;5032379;28;20028;-69
2022/08/11 09:48:58;;;;;;;5.00;2.22;;;27.60;33.30;;;;;;5016165;28;20101;-69
2022/08/11 09:51:27;;;;;;;4.07;2.00;;;27.60;33.20;;;;;;5052380;28;20021;-71
2022/08/11 09:53:53;;;;;;;2.15;1.90;;;27.60;33.10;;;;;;5052351;28;20448;-71
2022/08/11 09:59:07;;;;;;;3.10;1.90;;;27.70;33.40;;;;;;5052389;28;20032;-70
2022/08/11 10:01:41;;;;;;;4.07;1.88;;;27.80;33.40;;;;;;5034239;28;20108;-71
2022/08/11 10:04:18;;;;;;;5.43;1.85;;;27.90;33.10;;;;;;5053292;28;20440;-69
2022/08/11 10:07:00;;;;;;;3.65;2.03;;;27.90;33.70;;;;;;5036403;28;20495;-72
2022/08/11 10:09:48;;;;;;;2.00;1.50;;;27.90;30.70;;;;;;5036396;28;20052;-68
2022/08/11 10:12:23;;;;;;;7.90;2.05;;;27.90;30.40;;;;;;5036407;28;20049;-70
2022/08/11 10:18:40;;;;;;;3.55;1.75;;;27.90;29.60;;;;;;5036252;28;20068;-69
2022/08/11 10:20:35;;;;;;;4.07;1.92;;;27.90;30.90;;;;;;5049707;28;20064;-70
2022/08/11 10:28:33;;;;;;;1.50;1.30;;;28.00;28.40;;;;;;5036492;28;20174;-71
2022/08/11 10:33:59;;;;;;;3.10;2.10;;;28.10;28.30;;;;;;5035820;28;20091;-70
2022/08/11 10:36:30;;;;;;;6.60;2.13;;;28.10;28.70;;;;;;5035446;28;20025;-71
2022/08/11 10:38:58;;;;;;;4.93;1.88;;;28.10;28.10;;;;;;5035952;28;20030;-69
2022/08/11 10:44:11;;;;;;;2.55;1.58;;;28.20;28.70;;;;;;5035603;28;20104;-70
2022/08/11 10:49:25;;;;;;;1.92;1.17;;;28.40;29.20;;;;;;5036957;28;20037;-69
2022/08/11 11:00:14;;;;;;;1.40;1.30;;;28.50;27.20;;;;;;5035829;28;20029;-71
2022/08/11 11:02:43;;;;;;;9.82;2.10;;;28.50;26.60;;;;;;5035686;28;20378;-70
2022/08/11 11:05:25;;;;;;;2.35;1.40;;;28.50;26.80;;;;;;5036608;28;20108;-71
2022/08/11 11:08:51;;;;;;;1.92;1.58;;;28.50;27.30;;;;;;5035020;28;20022;-70
2022/08/11 11:10:48;;;;;;;4.75;2.00;;;28.60;27.40;;;;;;5034134;28;20434;-71
2022/08/11 11:18:43;;;;;;;;;;;28.70;26.40;;;;;;5035612;28;20013;-70
2022/08/11 11:21:17;;;;;;;2.08;1.02;;;28.70;27.50;;;;;;5034389;28;19920;-70
2022/08/11 11:24:02;;;;;;;2.35;1.10;;;28.70;26.50;;;;;;5035013;28;20029;-71
2022/08/11 11:26:55;;;;;;;1.27;1.17;;;28.80;26.90;;;;;;5035871;28;20072;-71
2022/08/11 11:29:36;;;;;;;3.25;1.63;;;28.80;26.90;;;;;;5016738;28;20128;-71
2022/08/11 11:32:35;;;;;;;1.55;1.10;;;28.80;26.60;;;;;;5034735;28;20020;-70
2022/08/11 11:35:35;;;;;;;1.98;1.10;;;28.90;26.40;;;;;;5034894;28;20033;-70
2022/08/11 11:38:04;;;;;;;1.73;1.30;;;28.90;26.80;;;;;;5021754;28;20494;-68
2022/08/11 11:40:31;;;;;;;3.38;1.30;;;28.90;26.10;;;;;;5036871;28;20489;-70
2022/08/11 11:42:59;;;;;;;1.58;1.30;;;28.90;25.50;;;;;;5054627;28;20036;-69
2022/08/11 11:45:25;;;;;;;2.58;1.27;;;28.90;25.40;;;;;;5054673;28;20024;-69
2022/08/11 11:47:53;;;;;;;1.83;1.38;;;29.00;25.60;;;;;;5031296;28;20021;-72
2022/08/11 11:50:28;;;;;;;1.45;0.90;;;29.00;25.80;;;;;;5034621;28;20026;-70
2022/08/11 11:52:54;;;;;;;1.58;1.13;;;29.00;26.10;;;;;;5046269;28;20025;-70
2022/08/11 11:55:25;;;;;;;3.70;1.30;;;29.00;26.10;;;;;;5054466;28;20063;-69
2022/08/11 12:03:25;;;;;;;2.22;1.48;;;29.10;25.80;;;;;;5054116;28;20032;-71
2022/08/11 12:05:52;;;;;;;3.47;1.27;;;29.10;25.80;;;;;;5053908;28;20019;-69
2022/08/11 12:08:20;;;;;;;1.58;1.10;;;29.20;25.90;;;;;;5054139;28;20023;-71
2022/08/11 12:13:40;;;;;;;4.45;1.23;;;29.30;26.40;;;;;;5037182;28;20032;-70
2022/08/11 12:16:09;;;;;;;1.75;1.20;;;29.30;25.50;;;;;;5032463;28;20029;-71
2022/08/11 12:18:35;;;;;;;1.70;1.33;;;29.30;25.40;;;;;;5033836;28;20471;-70
2022/08/11 12:21:03;;;;;;;1.88;1.50;;;29.30;25.60;;;;;;5033867;28;20057;-71
2022/08/11 12:29:04;;;;;;;1.95;1.50;;;29.40;24.90;;;;;;5033944;28;20056;-70
2022/08/11 12:31:35;;;;;;;1.90;1.58;;;29.50;24.90;;;;;;5033720;28;20089;-69
2022/08/11 12:34:15;;;;;;;4.72;1.60;;;29.50;25.20;;;;;;5016022;28;20030;-71
2022/08/11 12:37:04;;;;;;;1.42;1.20;;;29.50;25.10;;;;;;5033765;28;20092;-70
2022/08/11 12:45:26;;;;;;;1.70;1.30;;;29.70;24.60;;;;;;5053778;28;20082;-71
2022/08/11 12:54:08;;;;;;;3.30;1.10;;;29.80;24.20;;;;;;5033473;28;20079;-70
2022/08/11 13:05:10;;;;;;;6.20;1.25;;;30.00;24.20;;;;;;5032450;28;20505;-72
2022/08/11 13:07:39;;;;;;;3.53;1.20;;;30.00;24.10;;;;;;5019618;28;20028;-71
2022/08/11 13:10:08;;;;;;;3.45;1.35;;;30.00;24.30;;;;;;5052753;28;20443;-71
2022/08/11 13:12:47;;;;;;;2.22;1.27;;;30.00;24.20;;;;;;5052789;28;20104;-72
2022/08/11 13:15:14;;;;;;;4.75;1.20;;;30.00;24.20;;;;;;5052639;28;20029;-71
2022/08/11 13:17:41;;;;;;;1.38;1.10;;;30.10;23.90;;;;;;5051353;28;20021;-71
2022/08/11 13:20:12;;;;;;;2.67;1.10;;;30.10;23.90;;;;;;5052208;28;20044;-71
2022/08/11 13:22:44;;;;;;;2.30;1.13;;;30.10;24.30;;;;;;5040883;28;20079;-71
2022/08/11 13:25:13;;;;;;;1.52;1.05;;;30.10;23.60;;;;;;5032654;28;20160;-70
2022/08/11 13:27:39;;;;;;;5.85;1.05;;;30.10;23.80;;;;;;5032644;28;20025;-71
2022/08/11 13:32:51;;;;;;;2.38;1.33;;;30.20;23.60;;;;;;5032517;28;20033;-70
2022/08/11 13:35:19;;;;;;;3.03;1.40;;;30.20;23.30;;;;;;5031372;28;20032;-70
2022/08/11 13:37:46;;;;;;;2.05;0.80;;;30.20;22.80;;;;;;5035781;28;20055;-72
2022/08/11 13:40:15;;;;;;;1.92;1.20;;;30.20;22.80;;;;;;5038752;28;20038;-69
2022/08/11 13:42:42;;;;;;;1.25;0.98;;;30.20;22.80;;;;;;5032353;28;20532;-71
2022/08/11 13:45:09;;;;;;;3.13;1.40;;;30.30;23.20;;;;;;5014715;28;20030;-70
2022/08/11 13:47:37;;;;;;;2.03;1.02;;;30.30;22.70;;;;;;5032395;28;20035;-71
2022/08/11 13:50:06;;;;;;;2.75;1.40;;;30.50;23.20;;;;;;5032444;28;20025;-70
2022/08/11 13:52:34;;;;;;;1.00;0.90;;;30.70;22.80;;;;;;5032370;28;20026;-71
2022/08/11 13:55:00;;;;;;;1.20;0.90;;;30.90;23.30;;;;;;5032197;28;20052;-69
2022/08/11 13:57:32;;;;;;;1.42;1.00;;;31.20;23.00;;;;;;5031571;28;20049;-69
2022/08/11 14:00:08;;;;;;;3.05;1.08;;;31.60;22.80;;;;;;5014553;28;20344;-69
2022/08/11 14:02:39;;;;;;;1.70;1.35;;;32.00;22.20;;;;;;5032175;28;20025;-69
2022/08/11 14:05:10;;;;;;;1.48;1.10;;;32.40;21.40;;;;;;5032108;28;20017;-70
2022/08/11 14:07:52;;;;;;;1.38;1.20;;;33.00;21.70;;;;;;5035020;28;20032;-69
2022/08/11 14:10:22;;;;;;;1.88;1.10;;;33.40;21.60;;;;;;5051977;28;20482;-70
2022/08/11 14:15:48;;;;;;;2.88;1.35;;;34.50;20.90;;;;;;5031385;28;20152;-69
2022/08/11 14:18:21;;;;;;;1.58;1.10;;;35.10;20.40;;;;;;5031971;28;20494;-69
2022/08/11 14:23:41;;;;;;;1.73;1.52;;;36.30;20.10;;;;;;4992799;28;20145;-70
2022/08/11 14:26:22;;;;;;;3.03;1.30;;;36.90;18.70;;;;;;4992824;28;20098;-68
2022/08/11 14:29:01;;;;;;;1.58;1.13;;;37.40;19.10;;;;;;4991545;28;20105;-70
2022/08/11 14:31:29;;;;;;;1.77;1.48;;;38.00;18.30;;;;;;4991348;28;20499;-71
2022/08/11 14:34:01;;;;;;;1.58;1.30;;;38.60;18.10;;;;;;4992132;28;20034;-71
2022/08/11 14:36:34;;;;;;;1.55;1.20;;;39.10;17.20;;;;;;4992786;28;20481;-69
2022/08/11 14:39:11;;;;;;;1.65;1.52;;;39.60;16.90;;;;;;5004929;28;20403;-70
2022/08/11 14:47:21;;;;;;;3.13;1.77;;;41.40;15.50;;;;;;5012146;28;20065;-69
2022/08/11 14:49:50;;;;;;;3.13;1.63;;;41.90;15.20;;;;;;4998046;28;20472;-72
2022/08/11 14:52:19;;;;;;;1.75;1.40;;;42.40;14.70;;;;;;4996467;28;20085;-70
2022/08/11 14:57:37;;;;;;;1.65;1.55;;;43.40;13.50;;;;;;4996235;28;20037;-71
2022/08/11 15:00:06;;;;;;;1.67;1.58;;;43.90;13.30;;;;;;4995956;28;20033;-70
2022/08/11 15:05:21;;;;;;;1.80;1.40;;;44.60;13.40;;;;;;4995660;28;20400;-71
2022/08/11 15:07:47;;;;;;;6.47;1.80;;;44.90;12.70;;;;;;4999116;28;20018;-70
2022/08/11 15:10:15;;;;;;;2.42;1.80;;;45.20;12.40;;;;;;5015318;28;20104;-71
2022/08/11 15:12:42;;;;;;;2.45;1.52;;;45.40;11.50;;;;;;5014122;28;20026;-71
2022/08/11 15:17:57;;;;;;;1.40;1.30;;;45.50;11.30;;;;;;5015405;28;20506;-70
2022/08/11 15:26:02;;;;;;;2.83;1.60;;;45.70;11.90;;;;;;5015557;28;20029;-70
2022/08/11 15:48:12;;;;;;;3.08;1.50;;;45.40;10.60;;;;;;5015006;28;20112;-73
2022/08/11 15:50:41;;;;;;;1.60;1.33;;;45.20;10.60;;;;;;5014769;28;20501;-71
2022/08/11 15:53:21;;;;;;;2.25;1.63;;;44.90;10.70;;;;;;5014723;28;20033;-70
2022/08/11 15:55:48;;;;;;;3.65;2.08;;;44.70;11.20;;;;;;5014202;28;20379;-70
2022/08/11 16:04:12;;;;;;;2.13;1.40;;;44.90;11.40;;;;;;5014039;28;20096;-71
2022/08/11 16:06:53;;;;;;;1.50;1.40;;;45.10;11.50;;;;;;5029813;28;20061;-70
2022/08/11 16:09:27;;;;;;;2.40;1.40;;;45.40;11.40;;;;;;5029878;28;20038;-73
2022/08/11 16:11:55;;;;;;;2.35;2.05;;;45.50;10.80;;;;;;5014348;28;20036;-71
2022/08/11 16:17:10;;;;;;;2.33;1.33;;;45.50;10.70;;;;;;5014580;28;20087;-72
2022/08/11 16:19:38;;;;;;;1.52;1.30;;;45.40;10.60;;;;;;5016136;28;20550;-70
2022/08/11 16:22:07;;;;;;;1.88;1.20;;;45.40;10.60;;;;;;5033948;28;20544;-71
2022/08/11 16:24:37;;;;;;;3.50;1.38;;;45.30;10.50;;;;;;5032470;28;20117;-71
2022/08/11 16:27:04;;;;;;;1.40;1.30;;;45.10;10.50;;;;;;5033871;28;20045;-71
2022/08/11 16:29:32;;;;;;;1.17;1.02;;;44.80;10.40;;;;;;5033762;28;20503;-72
2022/08/11 16:32:15;;;;;;;2.10;1.00;;;44.50;10.70;;;;;;5033735;28;20017;-72
2022/08/11 16:40:17;;;;;;;7.18;1.33;;;42.80;11.20;;;;;;5053602;28;20051;-71
2022/08/11 16:48:17;;;;;;;6.45;1.88;;;40.70;12.40;;;;;;5053614;28;20506;-73
2022/08/11 16:50:43;;;;;;;6.50;1.45;;;39.90;12.70;;;;;;5035373;28;20021;-71
2022/08/11 16:53:09;;;;;;;6.70;3.35;;;39.20;13.20;;;;;;5053231;28;20033;-73
2022/08/11 16:55:36;;;;;;;3.83;1.17;;;38.50;13.60;;;;;;5053059;28;20029;-69
2022/08/11 17:00:48;;;;;;;2.17;1.33;;;37.40;14.30;;;;;;5053005;28;20036;-69
2022/08/11 17:14:45;;;;;;;2.40;1.27;;;35.30;16.00;;;;;;5032999;28;20048;-69
2022/08/11 17:17:37;;;;;;;1.95;1.42;;;34.80;15.90;;;;;;5032784;28;20099;-71
2022/08/11 17:20:10;;;;;;;1.98;1.20;;;34.40;16.10;;;;;;5012475;28;20051;-69
2022/08/11 17:25:27;;;;;;;8.63;2.10;;;33.80;17.10;;;;;;5032817;28;20040;-70
2022/08/11 17:27:55;;;;;;;1.70;1.33;;;33.40;17.30;;;;;;5032665;28;20494;-70
2022/08/11 17:35:27;;;;;;;3.55;1.42;;;33.10;17.60;;;;;;5032796;28;20033;-69
2022/08/11 17:35:58;;;;;;;2.92;1.45;;;32.50;18.00;;;;;;5032773;28;20036;-69
2022/08/11 17:38:25;;;;;;;1.90;1.70;;;32.10;18.30;;;;;;5042368;28;20072;-70
2022/08/11 17:49:11;;;;;;;2.83;1.67;;;31.20;19.70;;;;;;5052582;28;20024;-70
2022/08/11 18:00:06;;;;;;;3.95;3.22;;;30.40;20.80;;;;;;5052695;28;20087;-68
2022/08/11 18:05:18;;;;;;;3.72;1.70;;;30.10;21.40;;;;;;5037874;28;20084;-71
